Terminal Aerodrome Forecast
Issued by NWS

Home | Current Version | Previous Version | Text Only | Print | Product List | Glossary On
Versions: 1 2 3 4 5 6 7 8 9 10 11 12 13 14 15 16 17
000
FTUS43 KMQT 040520
TAFCMX
TAF
KCMX 040520Z 0406/0506 31009KT P6SM VCSH BKN040
     FM041200 31009KT P6SM VCSH OVC028
     FM041400 31010KT P6SM BKN035
     FM041700 31010G16KT P6SM SCT060
     FM042300 29007KT P6SM SCT070=

USA.gov is the U.S. government's official web portal to all federal, state and local government web resources and services.